Upper Saint Regis, New York
Current Conditions -  °F | °C
As of 3:51 AM on Thursday 23 Oct 2014 (Local Time) from KSLK Reporting Station
Overcast Overcast  
Wind Chill: 34°   Ceiling: 1900
Heat Index: 41°   Visibility: 10mi
Dew Point: 36°   Wind: 12mph
Humidity: 82%   Direction: 40°NE
Pressure: 30"   Gusts: NA
Location:  44.3663°N, 74.2493°W
Report Text: KSLK 230751Z AUTO 04010KT 10SM OVC019 05/02 A3000 RMK AO2 SLP170 T00500022
Loading
Personal Weather Stations






























Interactive Weather Map
Tropical Storm Tracking
New forecast layout! Learn more

10-Day Weather Forecast

Advertisements
Track Severe Weather on mobile